sensor_id;sensor_type;location;lat;lon;timestamp;pressure;altitude;pressure_sealevel;temperature;humidity
45403;BME280;47427;51.976;5.326;2023-08-12T00:01:14;101716.44;;;20.59;100.00
45403;BME280;47427;51.976;5.326;2023-08-12T00:04:17;101707.53;;;20.53;100.00
45403;BME280;47427;51.976;5.326;2023-08-12T00:07:19;101709.28;;;20.45;100.00
45403;BME280;47427;51.976;5.326;2023-08-12T00:10:21;101717.28;;;20.53;100.00
45403;BME280;47427;51.976;5.326;2023-08-12T00:13:24;101719.97;;;20.54;100.00
45403;BME280;47427;51.976;5.326;2023-08-12T00:16:27;101710.16;;;20.47;100.00
45403;BME280;47427;51.976;5.326;2023-08-12T00:19:29;101703.97;;;20.44;100.00
45403;BME280;47427;51.976;5.326;2023-08-12T00:22:32;101711.94;;;20.33;100.00
45403;BME280;47427;51.976;5.326;2023-08-12T00:25:35;101709.31;;;20.36;100.00
45403;BME280;47427;51.976;5.326;2023-08-12T00:28:38;101695.09;;;20.22;100.00
45403;BME280;47427;51.976;5.326;2023-08-12T00:31:40;101689.75;;;20.17;100.00
45403;BME280;47427;51.976;5.326;2023-08-12T00:34:43;101691.53;;;20.15;100.00
45403;BME280;47427;51.976;5.326;2023-08-12T00:37:46;101683.53;;;20.21;100.00
45403;BME280;47427;51.976;5.326;2023-08-12T00:40:49;101680.88;;;20.18;100.00
45403;BME280;47427;51.976;5.326;2023-08-12T00:43:52;101677.31;;;20.22;100.00
45403;BME280;47427;51.976;5.326;2023-08-12T00:46:53;101671.09;;;20.12;100.00
45403;BME280;47427;51.976;5.326;2023-08-12T00:49:59;101670.22;;;20.10;100.00
45403;BME280;47427;51.976;5.326;2023-08-12T00:53:02;101665.75;;;20.12;100.00
45403;BME280;47427;51.976;5.326;2023-08-12T00:56:09;101676.44;;;20.16;100.00
45403;BME280;47427;51.976;5.326;2023-08-12T00:59:12;101669.34;;;20.08;100.00
45403;BME280;47427;51.976;5.326;2023-08-12T01:02:34;101657.75;;;20.00;100.00
45403;BME280;47427;51.976;5.326;2023-08-12T01:05:36;101653.34;;;19.85;100.00
45403;BME280;47427;51.976;5.326;2023-08-12T01:08:37;101648.03;;;19.85;100.00
45403;BME280;47427;51.976;5.326;2023-08-12T01:11:57;101645.34;;;19.81;100.00
45403;BME280;47427;51.976;5.326;2023-08-12T01:15:24;101637.38;;;19.85;100.00
45403;BME280;47427;51.976;5.326;2023-08-12T01:18:28;101643.56;;;19.92;100.00
45403;BME280;47427;51.976;5.326;2023-08-12T01:21:32;101639.13;;;20.02;100.00
45403;BME280;47427;51.976;5.326;2023-08-12T01:24:44;101634.69;;;20.04;100.00
45403;BME280;47427;51.976;5.326;2023-08-12T01:27:47;101628.47;;;20.09;100.00
45403;BME280;47427;51.976;5.326;2023-08-12T01:31:06;101623.16;;;20.11;100.00
45403;BME280;47427;51.976;5.326;2023-08-12T01:34:25;101621.38;;;20.07;100.00
45403;BME280;47427;51.976;5.326;2023-08-12T01:37:30;101629.38;;;20.08;100.00
45403;BME280;47427;51.976;5.326;2023-08-12T01:40:33;101623.16;;;19.99;100.00
45403;BME280;47427;51.976;5.326;2023-08-12T01:43:37;101611.63;;;20.01;100.00
45403;BME280;47427;51.976;5.326;2023-08-12T01:46:42;101613.38;;;20.04;100.00
45403;BME280;47427;51.976;5.326;2023-08-12T01:49:44;101616.06;;;20.08;100.00
45403;BME280;47427;51.976;5.326;2023-08-12T01:52:47;101605.38;;;20.16;100.00
45403;BME280;47427;51.976;5.326;2023-08-12T01:55:50;101608.06;;;20.07;100.00
45403;BME280;47427;51.976;5.326;2023-08-12T01:58:53;101599.16;;;20.14;100.00
45403;BME280;47427;51.976;5.326;2023-08-12T02:01:56;101599.16;;;20.12;100.00
45403;BME280;47427;51.976;5.326;2023-08-12T02:05:00;101588.53;;;20.16;100.00
45403;BME280;47427;51.976;5.326;2023-08-12T02:08:06;101596.50;;;20.16;100.00
45403;BME280;47427;51.976;5.326;2023-08-12T02:11:10;101595.59;;;20.17;100.00
45403;BME280;47427;51.976;5.326;2023-08-12T02:14:14;101595.59;;;20.26;100.00
45403;BME280;47427;51.976;5.326;2023-08-12T02:17:17;101595.59;;;20.29;100.00
45403;BME280;47427;51.976;5.326;2023-08-12T02:20:19;101594.72;;;20.22;100.00
45403;BME280;47427;51.976;5.326;2023-08-12T02:23:21;101584.06;;;20.14;100.00
45403;BME280;47427;51.976;5.326;2023-08-12T02:26:24;101587.63;;;20.21;100.00
45403;BME280;47427;51.976;5.326;2023-08-12T02:29:27;101589.38;;;20.18;100.00
45403;BME280;47427;51.976;5.326;2023-08-12T02:32:28;101585.84;;;20.17;100.00
45403;BME280;47427;51.976;5.326;2023-08-12T02:35:32;101576.06;;;20.14;100.00
45403;BME280;47427;51.976;5.326;2023-08-12T02:38:35;101572.53;;;20.19;100.00
45403;BME280;47427;51.976;5.326;2023-08-12T02:41:38;101566.31;;;20.18;100.00
45403;BME280;47427;51.976;5.326;2023-08-12T02:44:40;101557.41;;;20.19;100.00
45403;BME280;47427;51.976;5.326;2023-08-12T02:47:43;101578.72;;;20.22;100.00
45403;BME280;47427;51.976;5.326;2023-08-12T02:50:46;101568.06;;;20.27;100.00
45403;BME280;47427;51.976;5.326;2023-08-12T02:53:49;101555.63;;;20.26;100.00
45403;BME280;47427;51.976;5.326;2023-08-12T02:56:52;101559.16;;;20.25;100.00
45403;BME280;47427;51.976;5.326;2023-08-12T02:59:53;101552.06;;;20.30;100.00
45403;BME280;47427;51.976;5.326;2023-08-12T03:02:56;101546.72;;;20.25;100.00
45403;BME280;47427;51.976;5.326;2023-08-12T03:06:18;101527.25;;;20.16;100.00
45403;BME280;47427;51.976;5.326;2023-08-12T03:09:21;101544.06;;;20.18;100.00
45403;BME280;47427;51.976;5.326;2023-08-12T03:12:23;101535.22;;;20.12;100.00
45403;BME280;47427;51.976;5.326;2023-08-12T03:15:26;101534.31;;;20.20;100.00
45403;BME280;47427;51.976;5.326;2023-08-12T03:18:30;101537.88;;;20.23;100.00
45403;BME280;47427;51.976;5.326;2023-08-12T03:21:33;101529.84;;;20.25;100.00
45403;BME280;47427;51.976;5.326;2023-08-12T03:24:36;101523.69;;;20.13;100.00
45403;BME280;47427;51.976;5.326;2023-08-12T03:27:39;101521.91;;;20.16;100.00
45403;BME280;47427;51.976;5.326;2023-08-12T03:30:53;101518.34;;;20.13;100.00
45403;BME280;47427;51.976;5.326;2023-08-12T03:33:59;101521.88;;;20.17;100.00
45403;BME280;47427;51.976;5.326;2023-08-12T03:37:05;101513.88;;;20.22;100.00
45403;BME280;47427;51.976;5.326;2023-08-12T03:40:09;101509.47;;;20.16;100.00
45403;BME280;47427;51.976;5.326;2023-08-12T03:43:13;101507.69;;;20.18;100.00
45403;BME280;47427;51.976;5.326;2023-08-12T03:46:18;101510.34;;;20.20;100.00
45403;BME280;47427;51.976;5.326;2023-08-12T03:49:19;101498.78;;;20.22;100.00
45403;BME280;47427;51.976;5.326;2023-08-12T03:52:22;101500.56;;;20.20;100.00
45403;BME280;47427;51.976;5.326;2023-08-12T03:55:25;101494.38;;;20.18;100.00
45403;BME280;47427;51.976;5.326;2023-08-12T03:58:28;101480.16;;;20.16;100.00
45403;BME280;47427;51.976;5.326;2023-08-12T04:01:30;101490.81;;;20.14;100.00
45403;BME280;47427;51.976;5.326;2023-08-12T04:04:33;101488.16;;;20.13;100.00
45403;BME280;47427;51.976;5.326;2023-08-12T04:07:54;101486.38;;;20.17;100.00
45403;BME280;47427;51.976;5.326;2023-08-12T04:10:56;101479.28;;;20.11;100.00
45403;BME280;47427;51.976;5.326;2023-08-12T04:13:57;101473.06;;;20.07;100.00
45403;BME280;47427;51.976;5.326;2023-08-12T04:17:00;101481.06;;;20.09;100.00
45403;BME280;47427;51.976;5.326;2023-08-12T04:20:03;101485.50;;;20.11;100.00
45403;BME280;47427;51.976;5.326;2023-08-12T04:23:10;101483.69;;;20.20;100.00
45403;BME280;47427;51.976;5.326;2023-08-12T04:26:12;101484.59;;;20.19;100.00
45403;BME280;47427;51.976;5.326;2023-08-12T04:29:14;101480.13;;;20.22;100.00
45403;BME280;47427;51.976;5.326;2023-08-12T04:32:17;101470.31;;;20.32;100.00
45403;BME280;47427;51.976;5.326;2023-08-12T04:35:20;101454.38;;;20.26;100.00
45403;BME280;47427;51.976;5.326;2023-08-12T04:38:23;101454.34;;;20.29;100.00
45403;BME280;47427;51.976;5.326;2023-08-12T04:41:29;101451.66;;;20.35;100.00
45403;BME280;47427;51.976;5.326;2023-08-12T04:44:33;101440.09;;;20.38;100.00
45403;BME280;47427;51.976;5.326;2023-08-12T04:47:36;101429.44;;;20.34;100.00
45403;BME280;47427;51.976;5.326;2023-08-12T04:50:39;101440.09;;;20.38;100.00
45403;BME280;47427;51.976;5.326;2023-08-12T04:53:42;101444.50;;;20.43;100.00
45403;BME280;47427;51.976;5.326;2023-08-12T04:56:45;101432.06;;;20.42;100.00
45403;BME280;47427;51.976;5.326;2023-08-12T04:59:48;101437.41;;;20.44;100.00
45403;BME280;47427;51.976;5.326;2023-08-12T05:02:52;101435.63;;;20.38;100.00
45403;BME280;47427;51.976;5.326;2023-08-12T05:05:53;101443.66;;;20.37;100.00
45403;BME280;47427;51.976;5.326;2023-08-12T05:09:15;101437.41;;;20.38;100.00
45403;BME280;47427;51.976;5.326;2023-08-12T05:12:17;101425.03;;;20.23;100.00
45403;BME280;47427;51.976;5.326;2023-08-12T05:15:19;101427.69;;;20.32;100.00
45403;BME280;47427;51.976;5.326;2023-08-12T05:18:23;101428.53;;;20.37;100.00
45403;BME280;47427;51.976;5.326;2023-08-12T05:21:45;101433.84;;;20.40;100.00
45403;BME280;47427;51.976;5.326;2023-08-12T05:24:46;101433.00;;;20.33;100.00
45403;BME280;47427;51.976;5.326;2023-08-12T05:27:48;101436.56;;;20.29;100.00
45403;BME280;47427;51.976;5.326;2023-08-12T05:30:51;101430.38;;;20.29;100.00
45403;BME280;47427;51.976;5.326;2023-08-12T05:33:53;101430.38;;;20.26;100.00
45403;BME280;47427;51.976;5.326;2023-08-12T05:36:56;101424.22;;;20.13;100.00
45403;BME280;47427;51.976;5.326;2023-08-12T05:39:58;101430.44;;;20.07;100.00
45403;BME280;47427;51.976;5.326;2023-08-12T05:43:01;101431.38;;;20.03;100.00
45403;BME280;47427;51.976;5.326;2023-08-12T05:46:03;101432.22;;;20.11;100.00
45403;BME280;47427;51.976;5.326;2023-08-12T05:49:06;101432.16;;;20.18;100.00
45403;BME280;47427;51.976;5.326;2023-08-12T05:52:08;101427.72;;;20.20;100.00
45403;BME280;47427;51.976;5.326;2023-08-12T05:55:11;101429.53;;;20.16;100.00
45403;BME280;47427;51.976;5.326;2023-08-12T05:58:13;101425.97;;;20.19;100.00
45403;BME280;47427;51.976;5.326;2023-08-12T06:01:16;101423.25;;;20.28;100.00
45403;BME280;47427;51.976;5.326;2023-08-12T06:04:18;101424.16;;;20.27;100.00
45403;BME280;47427;51.976;5.326;2023-08-12T06:07:21;101425.00;;;20.35;100.00
45403;BME280;47427;51.976;5.326;2023-08-12T06:10:25;101424.97;;;20.40;100.00
45403;BME280;47427;51.976;5.326;2023-08-12T06:13:28;101423.22;;;20.37;100.00
45403;BME280;47427;51.976;5.326;2023-08-12T06:16:31;101423.22;;;20.39;100.00
45403;BME280;47427;51.976;5.326;2023-08-12T06:19:34;101417.84;;;20.40;100.00
45403;BME280;47427;51.976;5.326;2023-08-12T06:22:37;101408.97;;;20.38;100.00
45403;BME280;47427;51.976;5.326;2023-08-12T06:25:39;101420.47;;;20.52;100.00
45403;BME280;47427;51.976;5.326;2023-08-12T06:28:43;101408.00;;;20.61;100.00
45403;BME280;47427;51.976;5.326;2023-08-12T06:31:45;101418.66;;;20.61;100.00
45403;BME280;47427;51.976;5.326;2023-08-12T06:34:48;101409.84;;;20.43;100.00
45403;BME280;47427;51.976;5.326;2023-08-12T06:37:51;101411.63;;;20.43;100.00
45403;BME280;47427;51.976;5.326;2023-08-12T06:40:55;101407.16;;;20.43;100.00
45403;BME280;47427;51.976;5.326;2023-08-12T06:43:56;101408.06;;;20.56;100.00
45403;BME280;47427;51.976;5.326;2023-08-12T06:46:59;101399.06;;;20.68;100.00
45403;BME280;47427;51.976;5.326;2023-08-12T06:50:02;101401.78;;;20.62;100.00
45403;BME280;47427;51.976;5.326;2023-08-12T06:53:05;101397.34;;;20.58;100.00
45403;BME280;47427;51.976;5.326;2023-08-12T06:56:07;101395.53;;;20.67;100.00
45403;BME280;47427;51.976;5.326;2023-08-12T06:59:10;101394.66;;;20.67;100.00
45403;BME280;47427;51.976;5.326;2023-08-12T07:02:15;101397.44;;;20.38;100.00
45403;BME280;47427;51.976;5.326;2023-08-12T07:05:20;101406.34;;;20.37;100.00
45403;BME280;47427;51.976;5.326;2023-08-12T07:08:22;101369.09;;;20.24;100.00
45403;BME280;47427;51.976;5.326;2023-08-12T07:11:25;101391.31;;;20.22;100.00
45403;BME280;47427;51.976;5.326;2023-08-12T07:14:28;101387.84;;;20.01;100.00
45403;BME280;47427;51.976;5.326;2023-08-12T07:17:31;101378.91;;;20.21;100.00
45403;BME280;47427;51.976;5.326;2023-08-12T07:20:33;101383.34;;;20.14;100.00
45403;BME280;47427;51.976;5.326;2023-08-12T07:23:35;101376.22;;;20.24;100.00
45403;BME280;47427;51.976;5.326;2023-08-12T07:26:38;101379.81;;;20.09;100.00
45403;BME280;47427;51.976;5.326;2023-08-12T07:29:41;101383.47;;;19.82;100.00
45403;BME280;47427;51.976;5.326;2023-08-12T07:32:45;101378.97;;;19.99;100.00
45403;BME280;47427;51.976;5.326;2023-08-12T07:35:49;101371.94;;;19.86;100.00
45403;BME280;47427;51.976;5.326;2023-08-12T07:38:52;101374.59;;;19.89;100.00
45403;BME280;47427;51.976;5.326;2023-08-12T07:41:55;101377.25;;;19.86;100.00
45403;BME280;47427;51.976;5.326;2023-08-12T07:44:56;101371.94;;;19.81;100.00
45403;BME280;47427;51.976;5.326;2023-08-12T07:47:59;101373.63;;;20.07;100.00
45403;BME280;47427;51.976;5.326;2023-08-12T07:51:02;101370.91;;;20.16;100.00
45403;BME280;47427;51.976;5.326;2023-08-12T07:54:05;101375.34;;;20.19;100.00
45403;BME280;47427;51.976;5.326;2023-08-12T07:57:07;101370.00;;;20.17;100.00
45403;BME280;47427;51.976;5.326;2023-08-12T08:00:11;101376.25;;;20.14;100.00
45403;BME280;47427;51.976;5.326;2023-08-12T08:03:14;101368.28;;;20.11;100.00
45403;BME280;47427;51.976;5.326;2023-08-12T08:06:35;101376.25;;;20.11;100.00
45403;BME280;47427;51.976;5.326;2023-08-12T08:09:38;101376.28;;;20.02;100.00
45403;BME280;47427;51.976;5.326;2023-08-12T08:12:41;101375.41;;;20.06;100.00
45403;BME280;47427;51.976;5.326;2023-08-12T08:15:45;101375.41;;;20.05;100.00
45403;BME280;47427;51.976;5.326;2023-08-12T08:18:47;101371.75;;;20.23;100.00
45403;BME280;47427;51.976;5.326;2023-08-12T08:21:49;101368.78;;;20.75;100.00
45403;BME280;47427;51.976;5.326;2023-08-12T08:24:52;101381.25;;;20.73;100.00
45403;BME280;47427;51.976;5.326;2023-08-12T08:27:55;101380.41;;;20.68;100.00
45403;BME280;47427;51.976;5.326;2023-08-12T08:30:57;101392.88;;;20.63;100.00
45403;BME280;47427;51.976;5.326;2023-08-12T08:33:59;101392.03;;;20.48;100.00
45403;BME280;47427;51.976;5.326;2023-08-12T08:37:02;101393.88;;;20.35;100.00
45403;BME280;47427;51.976;5.326;2023-08-12T08:40:06;101402.81;;;20.30;100.00
45403;BME280;47427;51.976;5.326;2023-08-12T08:43:10;101400.97;;;20.43;100.00
45403;BME280;47427;51.976;5.326;2023-08-12T08:46:15;101395.56;;;20.61;100.00
45403;BME280;47427;51.976;5.326;2023-08-12T08:49:20;101407.13;;;20.54;100.00
45403;BME280;47427;51.976;5.326;2023-08-12T08:52:26;101420.47;;;20.49;100.00
45403;BME280;47427;51.976;5.326;2023-08-12T08:55:29;101422.38;;;20.27;100.00
45403;BME280;47427;51.976;5.326;2023-08-12T08:58:30;101433.91;;;20.29;100.00
45403;BME280;47427;51.976;5.326;2023-08-12T09:01:35;101438.31;;;20.41;100.00
45403;BME280;47427;51.976;5.326;2023-08-12T09:04:38;101437.50;;;20.24;100.00
45403;BME280;47427;51.976;5.326;2023-08-12T09:07:43;101440.31;;;19.61;100.00
45403;BME280;47427;51.976;5.326;2023-08-12T09:10:48;101440.31;;;19.36;100.00
45403;BME280;47427;51.976;5.326;2023-08-12T09:13:52;101430.53;;;19.58;100.00
45403;BME280;47427;51.976;5.326;2023-08-12T09:16:56;101430.44;;;20.07;100.00
45403;BME280;47427;51.976;5.326;2023-08-12T09:19:59;101420.16;;;21.03;100.00
45403;BME280;47427;51.976;5.326;2023-08-12T09:23:02;101420.47;;;21.68;100.00
45403;BME280;47427;51.976;5.326;2023-08-12T09:26:19;101434.06;;;22.25;100.00
45403;BME280;47427;51.976;5.326;2023-08-12T09:29:34;101456.88;;;21.78;100.00
45403;BME280;47427;51.976;5.326;2023-08-12T09:32:38;101464.50;;;21.16;100.00
45403;BME280;47427;51.976;5.326;2023-08-12T09:35:42;101472.47;;;21.26;100.00
45403;BME280;47427;51.976;5.326;2023-08-12T09:38:45;101478.69;;;21.23;100.00
45403;BME280;47427;51.976;5.326;2023-08-12T09:41:52;101459.03;;;21.32;100.00
45403;BME280;47427;51.976;5.326;2023-08-12T09:44:57;101461.81;;;22.14;100.00
45403;BME280;47427;51.976;5.326;2023-08-12T09:47:58;101471.81;;;23.31;100.00
45403;BME280;47427;51.976;5.326;2023-08-12T09:51:01;101474.47;;;23.85;100.00
45403;BME280;47427;51.976;5.326;2023-08-12T09:54:04;101486.28;;;24.20;100.00
45403;BME280;47427;51.976;5.326;2023-08-12T09:57:08;101473.81;;;27.51;83.61
45403;BME280;47427;51.976;5.326;2023-08-12T10:00:14;101480.13;;;29.20;76.85
45403;BME280;47427;51.976;5.326;2023-08-12T10:03:21;101480.06;;;28.28;71.35
45403;BME280;47427;51.976;5.326;2023-08-12T10:06:25;101478.38;;;28.26;72.39
45403;BME280;47427;51.976;5.326;2023-08-12T10:09:28;101486.78;;;31.30;62.05
45403;BME280;47427;51.976;5.326;2023-08-12T10:12:30;101506.13;;;33.25;54.38
45403;BME280;47427;51.976;5.326;2023-08-12T10:15:34;101534.13;;;34.18;47.64
45403;BME280;47427;51.976;5.326;2023-08-12T10:18:40;101548.72;;;36.37;44.38
45403;BME280;47427;51.976;5.326;2023-08-12T10:21:44;101594.31;;;38.32;38.86
45403;BME280;47427;51.976;5.326;2023-08-12T10:24:47;101597.59;;;38.48;36.99
45403;BME280;47427;51.976;5.326;2023-08-12T10:27:50;101633.78;;;38.65;35.52
45403;BME280;47427;51.976;5.326;2023-08-12T10:30:53;101618.28;;;38.64;33.49
45403;BME280;47427;51.976;5.326;2023-08-12T10:33:59;101627.84;;;38.00;34.66
45403;BME280;47427;51.976;5.326;2023-08-12T10:37:02;101547.25;;;33.35;40.12
45403;BME280;47427;51.976;5.326;2023-08-12T10:40:22;101451.72;;;31.08;47.52
45403;BME280;47427;51.976;5.326;2023-08-12T10:43:26;101418.41;;;31.06;49.79
45403;BME280;47427;51.976;5.326;2023-08-12T10:46:37;101504.78;;;35.62;42.15
45403;BME280;47427;51.976;5.326;2023-08-12T10:49:42;101613.81;;;38.85;33.05
45403;BME280;47427;51.976;5.326;2023-08-12T10:52:52;101661.19;;;39.32;31.68
45403;BME280;47427;51.976;5.326;2023-08-12T10:56:00;101677.31;;;39.26;30.15
45403;BME280;47427;51.976;5.326;2023-08-12T10:59:03;101658.97;;;40.13;30.03
45403;BME280;47427;51.976;5.326;2023-08-12T11:02:07;101637.97;;;38.46;33.14
45403;BME280;47427;51.976;5.326;2023-08-12T11:05:15;101672.00;;;39.79;29.74
45403;BME280;47427;51.976;5.326;2023-08-12T11:08:17;101601.28;;;36.15;34.03
45403;BME280;47427;51.976;5.326;2023-08-12T11:11:24;101595.69;;;38.26;32.31
45403;BME280;47427;51.976;5.326;2023-08-12T11:14:27;101616.50;;;38.40;31.29
45403;BME280;47427;51.976;5.326;2023-08-12T11:17:49;101625.16;;;36.90;33.09
45403;BME280;47427;51.976;5.326;2023-08-12T11:20:51;101612.88;;;37.08;32.56
45403;BME280;47427;51.976;5.326;2023-08-12T11:23:55;101668.75;;;40.59;28.35
45403;BME280;47427;51.976;5.326;2023-08-12T11:26:58;101707.31;;;42.97;25.43
45403;BME280;47427;51.976;5.326;2023-08-12T11:30:02;101718.22;;;43.64;25.83
45403;BME280;47427;51.976;5.326;2023-08-12T11:33:05;101751.09;;;42.92;24.14
45403;BME280;47427;51.976;5.326;2023-08-12T11:36:07;101723.09;;;42.19;25.17
45403;BME280;47427;51.976;5.326;2023-08-12T11:39:10;101722.47;;;43.58;24.94
45403;BME280;47427;51.976;5.326;2023-08-12T11:42:13;101710.84;;;41.63;25.50
45403;BME280;47427;51.976;5.326;2023-08-12T11:45:21;101731.88;;;42.91;24.36
45403;BME280;47427;51.976;5.326;2023-08-12T11:48:27;101736.16;;;42.27;25.68
45403;BME280;47427;51.976;5.326;2023-08-12T11:51:33;101707.66;;;43.22;24.24
45403;BME280;47427;51.976;5.326;2023-08-12T11:54:37;101741.63;;;42.95;22.97
45403;BME280;47427;51.976;5.326;2023-08-12T11:57:43;101734.41;;;43.21;24.66
45403;BME280;47427;51.976;5.326;2023-08-12T12:00:47;101758.84;;;42.40;22.79
45403;BME280;47427;51.976;5.326;2023-08-12T12:03:54;101723.38;;;43.21;23.72
45403;BME280;47427;51.976;5.326;2023-08-12T12:06:58;101745.13;;;43.34;22.39
45403;BME280;47427;51.976;5.326;2023-08-12T12:10:00;101749.19;;;43.30;22.27
45403;BME280;47427;51.976;5.326;2023-08-12T12:13:04;101745.47;;;44.40;21.61
45403;BME280;47427;51.976;5.326;2023-08-12T12:16:10;101751.47;;;45.06;21.93
45403;BME280;47427;51.976;5.326;2023-08-12T12:19:24;101750.66;;;44.25;21.79
45403;BME280;47427;51.976;5.326;2023-08-12T12:22:31;101758.13;;;43.79;21.28
45403;BME280;47427;51.976;5.326;2023-08-12T12:25:34;101724.25;;;39.45;24.79
45403;BME280;47427;51.976;5.326;2023-08-12T12:28:37;101687.25;;;38.70;25.96
45403;BME280;47427;51.976;5.326;2023-08-12T12:31:41;101674.63;;;40.34;25.36
45403;BME280;47427;51.976;5.326;2023-08-12T12:34:43;101706.69;;;40.23;24.13
45403;BME280;47427;51.976;5.326;2023-08-12T12:37:46;101732.09;;;40.90;22.87
45403;BME280;47427;51.976;5.326;2023-08-12T12:40:48;101753.63;;;41.06;23.39
45403;BME280;47427;51.976;5.326;2023-08-12T12:43:51;101746.09;;;40.45;23.69
45403;BME280;47427;51.976;5.326;2023-08-12T12:46:53;101735.16;;;41.18;23.17
45403;BME280;47427;51.976;5.326;2023-08-12T12:49:56;101720.41;;;40.77;24.60
45403;BME280;47427;51.976;5.326;2023-08-12T12:52:59;101690.91;;;40.37;24.90
45403;BME280;47427;51.976;5.326;2023-08-12T12:56:02;101699.34;;;40.13;24.94
45403;BME280;47427;51.976;5.326;2023-08-12T12:59:06;101701.88;;;40.58;25.25
45403;BME280;47427;51.976;5.326;2023-08-12T13:02:09;101730.00;;;41.84;22.58
45403;BME280;47427;51.976;5.326;2023-08-12T13:05:12;101738.31;;;41.44;22.82
45403;BME280;47427;51.976;5.326;2023-08-12T13:08:15;101720.88;;;39.08;25.17
45403;BME280;47427;51.976;5.326;2023-08-12T13:11:17;101682.47;;;36.91;27.33
45403;BME280;47427;51.976;5.326;2023-08-12T13:14:19;101651.59;;;36.76;28.08
45403;BME280;47427;51.976;5.326;2023-08-12T13:17:24;101679.81;;;40.27;24.67
45403;BME280;47427;51.976;5.326;2023-08-12T13:20:27;101686.13;;;37.54;26.38
45403;BME280;47427;51.976;5.326;2023-08-12T13:23:29;101681.69;;;37.64;25.54
45403;BME280;47427;51.976;5.326;2023-08-12T13:26:31;101674.34;;;37.28;26.90
45403;BME280;47427;51.976;5.326;2023-08-12T13:29:34;101650.63;;;34.73;29.67
45403;BME280;47427;51.976;5.326;2023-08-12T13:32:38;101646.88;;;38.26;26.81
45403;BME280;47427;51.976;5.326;2023-08-12T13:35:40;101683.47;;;39.73;24.94
45403;BME280;47427;51.976;5.326;2023-08-12T13:38:42;101705.16;;;40.93;24.75
45403;BME280;47427;51.976;5.326;2023-08-12T13:41:45;101732.91;;;41.92;23.18
45403;BME280;47427;51.976;5.326;2023-08-12T13:44:48;101779.66;;;39.61;22.97
45403;BME280;47427;51.976;5.326;2023-08-12T13:47:51;101727.25;;;38.26;26.54
45403;BME280;47427;51.976;5.326;2023-08-12T13:50:56;101704.66;;;36.99;27.02
45403;BME280;47427;51.976;5.326;2023-08-12T13:53:59;101690.81;;;36.77;26.20
45403;BME280;47427;51.976;5.326;2023-08-12T13:57:03;101640.28;;;33.41;32.21
45403;BME280;47427;51.976;5.326;2023-08-12T14:00:07;101615.25;;;35.14;30.08
45403;BME280;47427;51.976;5.326;2023-08-12T14:03:13;101623.13;;;36.15;29.23
45403;BME280;47427;51.976;5.326;2023-08-12T14:06:15;101625.81;;;36.02;29.96
45403;BME280;47427;51.976;5.326;2023-08-12T14:09:16;101666.50;;;37.84;27.27
45403;BME280;47427;51.976;5.326;2023-08-12T14:12:20;101710.38;;;36.96;25.68
45403;BME280;47427;51.976;5.326;2023-08-12T14:15:23;101696.59;;;36.98;26.89
45403;BME280;47427;51.976;5.326;2023-08-12T14:18:25;101709.63;;;38.17;24.88
45403;BME280;47427;51.976;5.326;2023-08-12T14:21:46;101705.47;;;38.83;24.55
45403;BME280;47427;51.976;5.326;2023-08-12T14:24:48;101716.34;;;37.65;25.69
45403;BME280;47427;51.976;5.326;2023-08-12T14:27:53;101711.78;;;37.15;25.78
45403;BME280;47427;51.976;5.326;2023-08-12T14:30:56;101716.44;;;38.36;25.02
45403;BME280;47427;51.976;5.326;2023-08-12T14:33:59;101722.69;;;37.90;24.77
45403;BME280;47427;51.976;5.326;2023-08-12T14:37:02;101746.47;;;37.89;24.39
45403;BME280;47427;51.976;5.326;2023-08-12T14:40:06;101715.81;;;37.35;26.30
45403;BME280;47427;51.976;5.326;2023-08-12T14:43:10;101720.00;;;37.77;24.97
45403;BME280;47427;51.976;5.326;2023-08-12T14:46:12;101714.94;;;37.34;25.26
45403;BME280;47427;51.976;5.326;2023-08-12T14:49:15;101714.34;;;37.91;25.70
45403;BME280;47427;51.976;5.326;2023-08-12T14:52:19;101692.53;;;37.03;26.29
45403;BME280;47427;51.976;5.326;2023-08-12T14:55:22;101659.00;;;34.84;29.17
45403;BME280;47427;51.976;5.326;2023-08-12T14:58:25;101650.06;;;35.52;29.39
45403;BME280;47427;51.976;5.326;2023-08-12T15:01:28;101628.69;;;33.70;31.91
45403;BME280;47427;51.976;5.326;2023-08-12T15:04:32;101596.22;;;33.51;32.51
45403;BME280;47427;51.976;5.326;2023-08-12T15:07:34;101566.19;;;31.51;36.31
45403;BME280;47427;51.976;5.326;2023-08-12T15:10:37;101571.34;;;34.03;32.79
45403;BME280;47427;51.976;5.326;2023-08-12T15:13:40;101598.13;;;34.84;31.17
45403;BME280;47427;51.976;5.326;2023-08-12T15:16:43;101604.13;;;34.01;31.79
45403;BME280;47427;51.976;5.326;2023-08-12T15:19:45;101575.97;;;32.42;35.71
45403;BME280;47427;51.976;5.326;2023-08-12T15:23:07;101589.44;;;32.61;32.99
45403;BME280;47427;51.976;5.326;2023-08-12T15:26:08;101557.78;;;31.19;36.50
45403;BME280;47427;51.976;5.326;2023-08-12T15:29:10;101503.91;;;29.54;40.16
45403;BME280;47427;51.976;5.326;2023-08-12T15:32:13;101496.78;;;30.54;39.36
45403;BME280;47427;51.976;5.326;2023-08-12T15:35:16;101524.72;;;31.66;37.25
45403;BME280;47427;51.976;5.326;2023-08-12T15:38:19;101539.25;;;32.84;35.25
45403;BME280;47427;51.976;5.326;2023-08-12T15:41:21;101560.69;;;34.14;32.60
45403;BME280;47427;51.976;5.326;2023-08-12T15:44:25;101594.53;;;34.10;31.74
45403;BME280;47427;51.976;5.326;2023-08-12T15:47:28;101590.25;;;33.28;32.59
45403;BME280;47427;51.976;5.326;2023-08-12T15:50:30;101615.28;;;33.97;30.57
45403;BME280;47427;51.976;5.326;2023-08-12T15:53:33;101634.75;;;33.75;28.67